Hauptseite
METAR-TAF:

METAR-TAF

Flughäfen :

Flughafen Irkutsk

Irkutsk, Russland

Breite: 52-16N, Länge: 104-19E, Höhe: 513 m

Beobachtung

Neuester Wetterbericht von vor 33 Minuten, um 13:30 UTC
Wind 4 kt aus Süd
Temperatur -10°C
Luftfeuchtigkeit 72%
Luftdruck 1027 hPa
Sichtweite 10 km oder mehr
keine Wolken unter 1500 m und keine Kumulonimbus oder Gewitterwolken

METAR: UIII 241330Z 19002MPS CAVOK M10/M14 Q1027 R30/810560 NOSIG RMK QFE725/0967

Zeit: 22:03 (14:03 UTC)

Prognose

Neuester Wetterbericht von vor 3 Stunden und 3 Minuten, um 11:00 UTC
Gültige Prognose vom 24 um 12 UTC bis 25 um 12 UTC
Wind 6 kt aus West/Nordwest
Sichtweite: 3100 m
feuchter Dunst, Rauch
Zeitweise
vom 24 um 14 UTC bis 25 um 03 UTC
Sichtweite: 0300 m
in der Höhe von 100 ft
Gefrierender Nebel

TAF: UIII 241100Z 2412/2512 30003MPS 3100 BR FU NSC TEMPO 2414/2503 0300 FZFG VV001

Wetterbeobachtungen und Prognosen von mehr als 4000 Flughäfen (METAR und TAF Bericht).

Die verfügbaren Stationen werden durch gelbe und rote Markierungen auf der Karte dargestellt.

Führen Sie die Maus auf sie, um den Namen der Station zu sehen.

Darauf klicken, um die Beobachtung von Wetterbeobachtungen und Prognosen zu sehen.

Um die Karte zu ändern : klicken Sie auf den grünen Tasten mit einem schwarzen Kreuz Zum Vergrößern, auf den grünen Button mit einem Gedankenstrich zu verkleinern, oder auf die grünen Pfeile für benachbarte Karten.


METAR-TAF: